Riverton, WY

2:50 AM MST on December 26, 2014 (GMT -0700)
Hunt | Change Station
CLOSE
Current Station
Airport
Location: Lander,
Elevation: 5558 ft
Nearby Weather Stations

Elev 5558 ft 42.82 °N, 108.73 °W | Updated 2 minutes ago

Snow
Snow
18 °F
Feels Like 18 °F
N
0
Wind Variable Wind from North

Today
High -- | Low -- °F
--% Chance of Precip.
Yesterday
High -- | Low -- °F
Precip. -- in
7:44 AM 4:44 PM
Waxing Crescent, 24% visible
Pressure 29.89 in
Visibility 2.5 miles
Clouds Overcast 3200 ft
Dew Point 14 °F
Humidity 86%
Rainfall 0.01 in
Snow Depth Not available.
UV 0 out of 12
Pollen .10 out of 12
Air Quality Not available.
Flu Activity Not available.
SPECI KLND 260948Z AUTO 00000KT 2 1/2SM -SN BR OVC032 M08/M10 A2989 RMK AO2 P0000

More Conditions Fewer Conditions

Pressure 29.89 in
Visibility 2.5 miles
Clouds Overcast 3200 ft
Dew Point 14 °F
Humidity 86%
Rainfall 0.01 in
Snow Depth Not available.
UV 0 out of 12
Pollen .10 out of 12
Air Quality Not available.
Flu Activity Not available.
SPECI KLND 260948Z AUTO 00000KT 2 1/2SM -SN BR OVC032 M08/M10 A2989 RMK AO2 P0000

More Conditions Fewer Conditions

10-Day Weather Forecast

Almanac

Astronomy

Dec. 26, 2014 Rise Set
Actual Time
Civil Twilight
Nautical Twilight
Astronomical Twilight
Moon
Length of Visible Light
Length of Day
Tomorrow will be .
, % of the Moon is Illuminated

Today's Extremes

State Highs State Lows

Community

WunderPhotos

Upload Photos

1,780,568 photos uploaded!

WunderBlogs® & News

Nearby

Air Quality

  Air Quality AQ Index Pollutant
Not available.

Snow Depth

Station Depth Elevation

Earthquake Activity

City Distance Mag. Time & Date
Minimum magnitude displayed is 2.5.

Coastal Water Temperatures

Place Temperature

Nearby Weather Stations